sensor_id;sensor_type;location;lat;lon;timestamp;pressure;altitude;pressure_sealevel;temperature;humidity
53719;BME280;39616;48.872;9.390;2022-07-23T00:02:06;98282.91;;;24.43;66.44
53719;BME280;39616;48.872;9.390;2022-07-23T00:04:37;98282.94;;;24.46;65.83
53719;BME280;39616;48.872;9.390;2022-07-23T00:07:07;98286.50;;;24.47;65.01
53719;BME280;39616;48.872;9.390;2022-07-23T00:09:38;98286.06;;;24.45;64.14
53719;BME280;39616;48.872;9.390;2022-07-23T00:12:08;98274.63;;;24.50;63.80
53719;BME280;39616;48.872;9.390;2022-07-23T00:14:38;98257.56;;;24.44;64.32
53719;BME280;39616;48.872;9.390;2022-07-23T00:17:09;98246.88;;;24.39;63.99
53719;BME280;39616;48.872;9.390;2022-07-23T00:19:39;98255.56;;;24.38;64.12
53719;BME280;39616;48.872;9.390;2022-07-23T00:22:10;98245.25;;;24.34;64.34
53719;BME280;39616;48.872;9.390;2022-07-23T00:24:40;98237.72;;;24.35;64.48
53719;BME280;39616;48.872;9.390;2022-07-23T00:27:10;98248.81;;;24.31;64.72
53719;BME280;39616;48.872;9.390;2022-07-23T00:29:40;98228.22;;;24.32;64.65
53719;BME280;39616;48.872;9.390;2022-07-23T00:32:11;98229.38;;;24.24;65.63
53719;BME280;39616;48.872;9.390;2022-07-23T00:34:41;98229.38;;;24.24;64.39
53719;BME280;39616;48.872;9.390;2022-07-23T00:37:12;98234.91;;;24.24;63.87
53719;BME280;39616;48.872;9.390;2022-07-23T00:39:42;98238.06;;;24.23;63.57
53719;BME280;39616;48.872;9.390;2022-07-23T00:42:12;98230.16;;;24.25;63.38
53719;BME280;39616;48.872;9.390;2022-07-23T00:44:43;98226.59;;;24.24;63.03
53719;BME280;39616;48.872;9.390;2022-07-23T00:47:13;98231.34;;;24.24;62.77
53719;BME280;39616;48.872;9.390;2022-07-23T00:49:44;98217.50;;;24.20;63.02
53719;BME280;39616;48.872;9.390;2022-07-23T00:52:14;98230.56;;;24.23;61.87
53719;BME280;39616;48.872;9.390;2022-07-23T00:54:44;98232.53;;;24.23;64.27
53719;BME280;39616;48.872;9.390;2022-07-23T00:57:15;98239.63;;;24.13;68.82
53719;BME280;39616;48.872;9.390;2022-07-23T00:59:45;98233.91;;;23.84;73.26
53719;BME280;39616;48.872;9.390;2022-07-23T01:02:16;98236.09;;;23.57;78.77
53719;BME280;39616;48.872;9.390;2022-07-23T01:04:46;98214.97;;;23.31;76.35
53719;BME280;39616;48.872;9.390;2022-07-23T01:07:17;98212.88;;;23.18;74.61
53719;BME280;39616;48.872;9.390;2022-07-23T01:09:50;98227.38;;;23.04;75.77
53719;BME280;39616;48.872;9.390;2022-07-23T01:12:21;98218.97;;;22.93;76.77
53719;BME280;39616;48.872;9.390;2022-07-23T01:14:55;98229.19;;;22.89;76.38
53719;BME280;39616;48.872;9.390;2022-07-23T01:17:26;98230.72;;;22.86;75.70
53719;BME280;39616;48.872;9.390;2022-07-23T01:19:57;98229.09;;;22.82;76.17
53719;BME280;39616;48.872;9.390;2022-07-23T01:22:29;98219.41;;;22.95;74.81
53719;BME280;39616;48.872;9.390;2022-07-23T01:24:59;98222.81;;;22.85;77.06
53719;BME280;39616;48.872;9.390;2022-07-23T01:27:30;98220.00;;;22.78;77.30
53719;BME280;39616;48.872;9.390;2022-07-23T01:30:01;98217.22;;;22.78;75.95
53719;BME280;39616;48.872;9.390;2022-07-23T01:32:31;98208.53;;;22.76;76.30
53719;BME280;39616;48.872;9.390;2022-07-23T01:35:03;98182.88;;;22.79;74.93
53719;BME280;39616;48.872;9.390;2022-07-23T01:37:33;98190.31;;;22.71;75.44
53719;BME280;39616;48.872;9.390;2022-07-23T01:40:04;98203.31;;;22.71;75.44
53719;BME280;39616;48.872;9.390;2022-07-23T01:42:35;98210.03;;;22.70;74.38
53719;BME280;39616;48.872;9.390;2022-07-23T01:45:06;98196.97;;;22.66;75.43
53719;BME280;39616;48.872;9.390;2022-07-23T01:47:39;98196.19;;;22.66;74.74
53719;BME280;39616;48.872;9.390;2022-07-23T01:50:10;98195.41;;;22.65;73.43
53719;BME280;39616;48.872;9.390;2022-07-23T01:52:40;98185.59;;;22.75;73.01
53719;BME280;39616;48.872;9.390;2022-07-23T01:55:11;98183.22;;;22.74;73.55
53719;BME280;39616;48.872;9.390;2022-07-23T01:57:41;98189.97;;;22.76;73.18
53719;BME280;39616;48.872;9.390;2022-07-23T02:00:12;98204.19;;;22.78;71.59
53719;BME280;39616;48.872;9.390;2022-07-23T02:02:42;98205.78;;;22.76;71.58
53719;BME280;39616;48.872;9.390;2022-07-23T02:05:12;98213.69;;;22.81;72.85
53719;BME280;39616;48.872;9.390;2022-07-23T02:07:43;98216.44;;;22.77;73.48
53719;BME280;39616;48.872;9.390;2022-07-23T02:10:13;98220.38;;;22.76;72.36
53719;BME280;39616;48.872;9.390;2022-07-23T02:12:43;98218.38;;;22.73;72.74
53719;BME280;39616;48.872;9.390;2022-07-23T02:15:14;98227.81;;;22.69;73.19
53719;BME280;39616;48.872;9.390;2022-07-23T02:17:44;98223.81;;;22.66;73.05
53719;BME280;39616;48.872;9.390;2022-07-23T02:20:15;98233.53;;;22.53;74.35
53719;BME280;39616;48.872;9.390;2022-07-23T02:22:45;98236.22;;;22.46;74.85
53719;BME280;39616;48.872;9.390;2022-07-23T02:25:15;98231.44;;;22.39;74.57
53719;BME280;39616;48.872;9.390;2022-07-23T02:27:46;98229.78;;;22.34;74.45
53719;BME280;39616;48.872;9.390;2022-07-23T02:30:16;98240.81;;;22.34;74.60
53719;BME280;39616;48.872;9.390;2022-07-23T02:32:46;98241.56;;;22.31;74.86
53719;BME280;39616;48.872;9.390;2022-07-23T02:35:17;98238.78;;;22.28;74.82
53719;BME280;39616;48.872;9.390;2022-07-23T02:37:47;98251.38;;;22.25;75.37
53719;BME280;39616;48.872;9.390;2022-07-23T02:40:18;98259.22;;;22.23;76.02
53719;BME280;39616;48.872;9.390;2022-07-23T02:42:48;98266.44;;;22.31;75.65
53719;BME280;39616;48.872;9.390;2022-07-23T02:45:18;98267.59;;;22.30;75.14
53719;BME280;39616;48.872;9.390;2022-07-23T02:47:49;98280.91;;;22.21;76.05
53719;BME280;39616;48.872;9.390;2022-07-23T02:50:19;98279.66;;;22.15;76.29
53719;BME280;39616;48.872;9.390;2022-07-23T02:52:49;98281.97;;;22.13;76.93
53719;BME280;39616;48.872;9.390;2022-07-23T02:55:20;98289.38;;;22.09;76.65
53719;BME280;39616;48.872;9.390;2022-07-23T02:57:50;98295.63;;;22.02;77.28
53719;BME280;39616;48.872;9.390;2022-07-23T03:00:20;98306.63;;;21.99;77.80
53719;BME280;39616;48.872;9.390;2022-07-23T03:02:51;98314.50;;;22.00;77.53
53719;BME280;39616;48.872;9.390;2022-07-23T03:05:21;98296.31;;;21.95;77.97
53719;BME280;39616;48.872;9.390;2022-07-23T03:07:51;98314.00;;;21.91;78.73
53719;BME280;39616;48.872;9.390;2022-07-23T03:10:21;98308.31;;;21.80;80.30
53719;BME280;39616;48.872;9.390;2022-07-23T03:12:52;98309.34;;;21.72;80.26
53719;BME280;39616;48.872;9.390;2022-07-23T03:15:22;98316.03;;;21.71;81.32
53719;BME280;39616;48.872;9.390;2022-07-23T03:17:53;98315.63;;;21.69;80.73
53719;BME280;39616;48.872;9.390;2022-07-23T03:20:23;98320.72;;;21.67;81.84
53719;BME280;39616;48.872;9.390;2022-07-23T03:22:53;98317.16;;;21.66;82.28
53719;BME280;39616;48.872;9.390;2022-07-23T03:25:24;98321.50;;;21.67;81.83
53719;BME280;39616;48.872;9.390;2022-07-23T03:27:54;98321.56;;;21.71;81.64
53719;BME280;39616;48.872;9.390;2022-07-23T03:30:24;98318.81;;;21.71;82.21
53719;BME280;39616;48.872;9.390;2022-07-23T03:32:54;98313.28;;;21.71;81.96
53719;BME280;39616;48.872;9.390;2022-07-23T03:35:25;98308.22;;;21.73;82.17
53719;BME280;39616;48.872;9.390;2022-07-23T03:37:55;98303.03;;;21.71;82.33
53719;BME280;39616;48.872;9.390;2022-07-23T03:40:25;98308.09;;;21.66;82.96
53719;BME280;39616;48.872;9.390;2022-07-23T03:42:56;98308.44;;;21.64;82.87
53719;BME280;39616;48.872;9.390;2022-07-23T03:45:26;98299.75;;;21.62;83.42
53719;BME280;39616;48.872;9.390;2022-07-23T03:47:57;98296.22;;;21.62;83.61
53719;BME280;39616;48.872;9.390;2022-07-23T03:50:27;98301.66;;;21.58;83.77
53719;BME280;39616;48.872;9.390;2022-07-23T03:52:58;98304.03;;;21.60;83.21
53719;BME280;39616;48.872;9.390;2022-07-23T03:55:28;98314.16;;;21.52;84.07
53719;BME280;39616;48.872;9.390;2022-07-23T03:57:58;98318.16;;;21.55;83.96
53719;BME280;39616;48.872;9.390;2022-07-23T04:00:29;98310.19;;;21.50;84.71
53719;BME280;39616;48.872;9.390;2022-07-23T04:02:59;98321.47;;;21.41;85.33
53719;BME280;39616;48.872;9.390;2022-07-23T04:05:29;98314.13;;;21.49;85.18
53719;BME280;39616;48.872;9.390;2022-07-23T04:08:00;98309.59;;;21.37;86.66
53719;BME280;39616;48.872;9.390;2022-07-23T04:10:30;98316.78;;;21.22;88.08
53719;BME280;39616;48.872;9.390;2022-07-23T04:13:00;98309.25;;;21.19;89.37
53719;BME280;39616;48.872;9.390;2022-07-23T04:15:31;98315.06;;;21.14;89.18
53719;BME280;39616;48.872;9.390;2022-07-23T04:18:01;98311.44;;;21.10;89.84
53719;BME280;39616;48.872;9.390;2022-07-23T04:20:31;98316.94;;;21.10;89.61
53719;BME280;39616;48.872;9.390;2022-07-23T04:23:02;98324.00;;;21.07;91.14
53719;BME280;39616;48.872;9.390;2022-07-23T04:25:32;98320.25;;;20.96;92.20
53719;BME280;39616;48.872;9.390;2022-07-23T04:28:02;98323.75;;;20.93;93.16
53719;BME280;39616;48.872;9.390;2022-07-23T04:30:33;98314.69;;;20.92;93.09
53719;BME280;39616;48.872;9.390;2022-07-23T04:33:03;98323.66;;;20.89;93.80
53719;BME280;39616;48.872;9.390;2022-07-23T04:35:37;98325.31;;;20.94;93.59
53719;BME280;39616;48.872;9.390;2022-07-23T04:38:07;98325.91;;;21.03;93.71
53719;BME280;39616;48.872;9.390;2022-07-23T04:40:37;98331.31;;;21.19;92.04
53719;BME280;39616;48.872;9.390;2022-07-23T04:43:07;98329.69;;;21.37;88.13
53719;BME280;39616;48.872;9.390;2022-07-23T04:45:38;98318.56;;;21.57;87.19
53719;BME280;39616;48.872;9.390;2022-07-23T04:48:08;98310.06;;;21.65;87.36
53719;BME280;39616;48.872;9.390;2022-07-23T04:50:38;98310.59;;;21.75;87.69
53719;BME280;39616;48.872;9.390;2022-07-23T04:53:09;98316.53;;;21.77;87.29
53719;BME280;39616;48.872;9.390;2022-07-23T04:55:39;98321.72;;;21.82;87.51
53719;BME280;39616;48.872;9.390;2022-07-23T04:58:10;98322.22;;;21.87;87.32
53719;BME280;39616;48.872;9.390;2022-07-23T05:00:40;98321.47;;;21.90;87.03
53719;BME280;39616;48.872;9.390;2022-07-23T05:03:10;98328.69;;;21.99;86.76
53719;BME280;39616;48.872;9.390;2022-07-23T05:05:41;98328.03;;;22.09;86.25
53719;BME280;39616;48.872;9.390;2022-07-23T05:08:11;98326.31;;;22.24;83.58
53719;BME280;39616;48.872;9.390;2022-07-23T05:10:42;98325.66;;;22.34;83.45
53719;BME280;39616;48.872;9.390;2022-07-23T05:13:14;98327.44;;;22.49;83.82
53719;BME280;39616;48.872;9.390;2022-07-23T05:15:45;98327.25;;;22.65;81.72
53719;BME280;39616;48.872;9.390;2022-07-23T05:18:15;98329.75;;;22.77;80.26
53719;BME280;39616;48.872;9.390;2022-07-23T05:20:46;98323.88;;;22.82;80.21
53719;BME280;39616;48.872;9.390;2022-07-23T05:23:17;98327.47;;;22.83;79.46
53719;BME280;39616;48.872;9.390;2022-07-23T05:25:47;98328.66;;;22.85;79.39
53719;BME280;39616;48.872;9.390;2022-07-23T05:28:17;98331.56;;;22.96;80.04
53719;BME280;39616;48.872;9.390;2022-07-23T05:30:48;98336.47;;;23.10;77.87
53719;BME280;39616;48.872;9.390;2022-07-23T05:33:19;98330.69;;;23.26;76.82
53719;BME280;39616;48.872;9.390;2022-07-23T05:35:49;98334.31;;;23.33;77.03
53719;BME280;39616;48.872;9.390;2022-07-23T05:38:20;98340.34;;;23.43;75.70
53719;BME280;39616;48.872;9.390;2022-07-23T05:40:50;98352.25;;;23.47;75.87
53719;BME280;39616;48.872;9.390;2022-07-23T05:43:21;98355.75;;;23.44;75.91
53719;BME280;39616;48.872;9.390;2022-07-23T05:45:51;98360.53;;;23.47;77.09
53719;BME280;39616;48.872;9.390;2022-07-23T05:48:22;98370.50;;;23.55;74.86
53719;BME280;39616;48.872;9.390;2022-07-23T05:50:52;98362.16;;;23.51;75.70
53719;BME280;39616;48.872;9.390;2022-07-23T05:53:22;98368.56;;;23.59;75.39
53719;BME280;39616;48.872;9.390;2022-07-23T05:55:53;98372.91;;;23.60;73.55
53719;BME280;39616;48.872;9.390;2022-07-23T05:58:23;98373.25;;;23.55;73.21
53719;BME280;39616;48.872;9.390;2022-07-23T06:00:53;98376.84;;;23.59;73.38
53719;BME280;39616;48.872;9.390;2022-07-23T06:03:24;98381.16;;;23.56;71.83
53719;BME280;39616;48.872;9.390;2022-07-23T06:05:54;98390.28;;;23.57;74.98
53719;BME280;39616;48.872;9.390;2022-07-23T06:08:25;98390.44;;;23.68;73.97
53719;BME280;39616;48.872;9.390;2022-07-23T06:10:55;98402.94;;;23.58;75.69
53719;BME280;39616;48.872;9.390;2022-07-23T06:13:25;98406.28;;;23.37;78.18
53719;BME280;39616;48.872;9.390;2022-07-23T06:15:56;98396.16;;;23.14;81.50
53719;BME280;39616;48.872;9.390;2022-07-23T06:18:26;98396.84;;;23.04;81.99
53719;BME280;39616;48.872;9.390;2022-07-23T06:20:56;98397.16;;;22.96;81.66
53719;BME280;39616;48.872;9.390;2022-07-23T06:23:27;98399.34;;;22.86;83.31
53719;BME280;39616;48.872;9.390;2022-07-23T06:25:57;98397.97;;;23.00;83.13
53719;BME280;39616;48.872;9.390;2022-07-23T06:28:27;98394.13;;;23.08;82.53
53719;BME280;39616;48.872;9.390;2022-07-23T06:30:58;98385.66;;;22.94;82.38
53719;BME280;39616;48.872;9.390;2022-07-23T06:33:28;98384.09;;;22.96;82.67
53719;BME280;39616;48.872;9.390;2022-07-23T06:35:58;98373.81;;;23.30;81.90
53719;BME280;39616;48.872;9.390;2022-07-23T06:38:29;98361.56;;;23.69;80.00
53719;BME280;39616;48.872;9.390;2022-07-23T06:40:59;98372.56;;;23.65;77.12
53719;BME280;39616;48.872;9.390;2022-07-23T06:43:30;98375.44;;;23.72;73.41
53719;BME280;39616;48.872;9.390;2022-07-23T06:46:01;98384.06;;;23.67;72.92
53719;BME280;39616;48.872;9.390;2022-07-23T06:48:31;98386.06;;;23.70;74.21
53719;BME280;39616;48.872;9.390;2022-07-23T06:51:02;98390.03;;;23.69;75.00
53719;BME280;39616;48.872;9.390;2022-07-23T06:53:33;98392.66;;;23.58;74.27
53719;BME280;39616;48.872;9.390;2022-07-23T06:56:03;98390.19;;;23.46;74.83
53719;BME280;39616;48.872;9.390;2022-07-23T06:58:34;98390.75;;;23.66;74.97
53719;BME280;39616;48.872;9.390;2022-07-23T07:01:04;98397.63;;;23.38;75.46
53719;BME280;39616;48.872;9.390;2022-07-23T07:03:35;98406.09;;;23.19;77.61
53719;BME280;39616;48.872;9.390;2022-07-23T07:06:05;98415.75;;;22.99;79.17
53719;BME280;39616;48.872;9.390;2022-07-23T07:08:35;98439.72;;;22.91;80.35
53719;BME280;39616;48.872;9.390;2022-07-23T07:11:06;98441.16;;;22.81;81.50
53719;BME280;39616;48.872;9.390;2022-07-23T07:13:37;98460.25;;;22.63;83.67
53719;BME280;39616;48.872;9.390;2022-07-23T07:16:08;98467.19;;;22.50;84.18
53719;BME280;39616;48.872;9.390;2022-07-23T07:18:38;98480.50;;;22.45;83.98
53719;BME280;39616;48.872;9.390;2022-07-23T07:21:09;98479.69;;;22.17;86.45
53719;BME280;39616;48.872;9.390;2022-07-23T07:23:39;98470.03;;;22.08;87.36
53719;BME280;39616;48.872;9.390;2022-07-23T07:26:09;98474.81;;;22.11;88.22
53719;BME280;39616;48.872;9.390;2022-07-23T07:28:40;98465.38;;;22.12;88.06
53719;BME280;39616;48.872;9.390;2022-07-23T07:31:10;98466.13;;;22.32;86.74
53719;BME280;39616;48.872;9.390;2022-07-23T07:33:41;98467.53;;;22.22;87.94
53719;BME280;39616;48.872;9.390;2022-07-23T07:36:11;98462.81;;;22.00;89.99
53719;BME280;39616;48.872;9.390;2022-07-23T07:38:42;98462.25;;;21.90;89.70
53719;BME280;39616;48.872;9.390;2022-07-23T07:41:12;98456.97;;;21.82;92.12
53719;BME280;39616;48.872;9.390;2022-07-23T07:43:42;98447.91;;;21.81;92.48
53719;BME280;39616;48.872;9.390;2022-07-23T07:46:13;98432.00;;;21.75;92.93
53719;BME280;39616;48.872;9.390;2022-07-23T07:48:43;98435.94;;;21.74;92.77
53719;BME280;39616;48.872;9.390;2022-07-23T07:51:13;98434.28;;;21.92;94.27
53719;BME280;39616;48.872;9.390;2022-07-23T07:53:44;98448.03;;;21.88;95.85
53719;BME280;39616;48.872;9.390;2022-07-23T07:56:14;98453.03;;;21.83;96.57
53719;BME280;39616;48.872;9.390;2022-07-23T07:58:44;98457.56;;;21.49;95.81
53719;BME280;39616;48.872;9.390;2022-07-23T08:01:15;98465.25;;;21.59;98.46
53719;BME280;39616;48.872;9.390;2022-07-23T08:03:46;98483.13;;;21.88;96.25
53719;BME280;39616;48.872;9.390;2022-07-23T08:06:16;98497.81;;;22.15;97.71
53719;BME280;39616;48.872;9.390;2022-07-23T08:08:47;98495.81;;;22.38;94.10
53719;BME280;39616;48.872;9.390;2022-07-23T08:11:17;98503.22;;;22.11;87.83
53719;BME280;39616;48.872;9.390;2022-07-23T08:13:48;98512.00;;;21.94;94.52
53719;BME280;39616;48.872;9.390;2022-07-23T08:16:18;98528.13;;;21.50;93.46
53719;BME280;39616;48.872;9.390;2022-07-23T08:18:48;98530.81;;;21.65;95.50
53719;BME280;39616;48.872;9.390;2022-07-23T08:21:19;98523.97;;;21.59;94.66
53719;BME280;39616;48.872;9.390;2022-07-23T08:23:49;98515.72;;;21.40;96.90
53719;BME280;39616;48.872;9.390;2022-07-23T08:26:19;98517.94;;;21.54;99.32
53719;BME280;39616;48.872;9.390;2022-07-23T08:28:50;98517.47;;;21.48;98.72
53719;BME280;39616;48.872;9.390;2022-07-23T08:31:20;98513.97;;;21.93;98.87
53719;BME280;39616;48.872;9.390;2022-07-23T08:33:51;98511.34;;;22.24;92.32
53719;BME280;39616;48.872;9.390;2022-07-23T08:36:22;98502.94;;;22.93;88.08
53719;BME280;39616;48.872;9.390;2022-07-23T08:38:55;98502.59;;;22.94;83.21
53719;BME280;39616;48.872;9.390;2022-07-23T08:41:25;98499.75;;;22.90;83.79
53719;BME280;39616;48.872;9.390;2022-07-23T08:43:56;98499.41;;;22.65;87.29
53719;BME280;39616;48.872;9.390;2022-07-23T08:46:27;98500.47;;;22.57;86.01
53719;BME280;39616;48.872;9.390;2022-07-23T08:48:58;98496.03;;;22.53;87.77
53719;BME280;39616;48.872;9.390;2022-07-23T08:51:28;98492.22;;;22.61;91.31
53719;BME280;39616;48.872;9.390;2022-07-23T08:53:59;98499.63;;;22.57;88.88
53719;BME280;39616;48.872;9.390;2022-07-23T08:56:30;98500.66;;;22.45;85.94
53719;BME280;39616;48.872;9.390;2022-07-23T08:59:01;98493.41;;;22.90;85.10
53719;BME280;39616;48.872;9.390;2022-07-23T09:01:31;98487.91;;;23.54;81.57
53719;BME280;39616;48.872;9.390;2022-07-23T09:04:01;98487.31;;;24.56;73.42
53719;BME280;39616;48.872;9.390;2022-07-23T09:06:32;98486.13;;;25.27;70.42
53719;BME280;39616;48.872;9.390;2022-07-23T09:09:16;98489.88;;;25.88;65.45
53719;BME280;39616;48.872;9.390;2022-07-23T09:11:48;98486.75;;;26.11;64.80
53719;BME280;39616;48.872;9.390;2022-07-23T09:14:43;98488.34;;;26.62;61.44
53719;BME280;39616;48.872;9.390;2022-07-23T09:17:16;98487.41;;;27.08;58.87
53719;BME280;39616;48.872;9.390;2022-07-23T09:19:47;98477.84;;;27.97;56.82
53719;BME280;39616;48.872;9.390;2022-07-23T09:25:09;98479.94;;;27.82;55.37
53719;BME280;39616;48.872;9.390;2022-07-23T09:27:50;98480.44;;;27.63;56.77
53719;BME280;39616;48.872;9.390;2022-07-23T09:30:24;98477.91;;;26.91;59.11
53719;BME280;39616;48.872;9.390;2022-07-23T09:33:04;98474.72;;;27.14;55.85
53719;BME280;39616;48.872;9.390;2022-07-23T09:35:52;98480.63;;;27.20;56.02
53719;BME280;39616;48.872;9.390;2022-07-23T09:38:24;98476.91;;;27.55;55.69
53719;BME280;39616;48.872;9.390;2022-07-23T09:41:07;98475.06;;;27.97;52.38
53719;BME280;39616;48.872;9.390;2022-07-23T09:43:37;98474.81;;;27.70;53.38
53719;BME280;39616;48.872;9.390;2022-07-23T09:46:22;98476.88;;;27.59;53.75
53719;BME280;39616;48.872;9.390;2022-07-23T09:48:56;98470.94;;;27.53;51.13
53719;BME280;39616;48.872;9.390;2022-07-23T09:51:27;98474.91;;;27.56;51.80
53719;BME280;39616;48.872;9.390;2022-07-23T09:54:03;98469.34;;;28.15;50.06
53719;BME280;39616;48.872;9.390;2022-07-23T09:56:35;98466.47;;;29.08;48.85
53719;BME280;39616;48.872;9.390;2022-07-23T09:59:07;98463.34;;;29.06;48.22
53719;BME280;39616;48.872;9.390;2022-07-23T10:01:41;98478.16;;;28.58;48.70
53719;BME280;39616;48.872;9.390;2022-07-23T10:04:11;98476.34;;;27.85;49.58
53719;BME280;39616;48.872;9.390;2022-07-23T10:06:43;98479.19;;;28.75;48.68
53719;BME280;39616;48.872;9.390;2022-07-23T10:09:15;98471.34;;;29.35;48.20
53719;BME280;39616;48.872;9.390;2022-07-23T10:11:48;98467.97;;;29.20;46.79
53719;BME280;39616;48.872;9.390;2022-07-23T10:14:19;98483.81;;;28.89;47.01
53719;BME280;39616;48.872;9.390;2022-07-23T10:16:49;98480.56;;;29.90;47.08
53719;BME280;39616;48.872;9.390;2022-07-23T10:19:20;98467.09;;;30.59;45.45
53719;BME280;39616;48.872;9.390;2022-07-23T10:21:54;98465.44;;;30.38;44.56
53719;BME280;39616;48.872;9.390;2022-07-23T10:24:40;98466.63;;;28.94;46.59
53719;BME280;39616;48.872;9.390;2022-07-23T10:30:14;98464.38;;;28.40;47.96
53719;BME280;39616;48.872;9.390;2022-07-23T10:35:56;98468.91;;;29.06;46.81
53719;BME280;39616;48.872;9.390;2022-07-23T10:38:34;98464.88;;;28.73;46.76
53719;BME280;39616;48.872;9.390;2022-07-23T10:41:07;98475.72;;;28.64;48.16
53719;BME280;39616;48.872;9.390;2022-07-23T10:43:37;98470.88;;;28.23;49.43
53719;BME280;39616;48.872;9.390;2022-07-23T10:49:26;98461.13;;;29.52;47.66
53719;BME280;39616;48.872;9.390;2022-07-23T10:52:21;98471.34;;;28.63;47.34
53719;BME280;39616;48.872;9.390;2022-07-23T10:57:47;98463.41;;;28.09;49.43
53719;BME280;39616;48.872;9.390;2022-07-23T11:00:26;98466.41;;;28.36;46.34
53719;BME280;39616;48.872;9.390;2022-07-23T11:03:02;98468.41;;;28.36;47.48
53719;BME280;39616;48.872;9.390;2022-07-23T11:05:46;98470.50;;;28.21;46.31
53719;BME280;39616;48.872;9.390;2022-07-23T11:08:20;98467.59;;;27.83;47.55
53719;BME280;39616;48.872;9.390;2022-07-23T11:10:53;98466.69;;;28.01;48.01
53719;BME280;39616;48.872;9.390;2022-07-23T11:24:10;98454.84;;;28.34;47.91
53719;BME280;39616;48.872;9.390;2022-07-23T11:26:53;98454.72;;;28.52;48.81
53719;BME280;39616;48.872;9.390;2022-07-23T11:37:26;98450.66;;;28.12;47.00
53719;BME280;39616;48.872;9.390;2022-07-23T11:39:58;98443.56;;;29.24;45.33
53719;BME280;39616;48.872;9.390;2022-07-23T11:42:28;98451.28;;;28.75;47.33
53719;BME280;39616;48.872;9.390;2022-07-23T11:44:59;98464.47;;;28.71;47.85
53719;BME280;39616;48.872;9.390;2022-07-23T11:47:29;98458.03;;;27.88;49.04
53719;BME280;39616;48.872;9.390;2022-07-23T11:50:02;98450.13;;;27.72;49.08
53719;BME280;39616;48.872;9.390;2022-07-23T11:52:33;98456.44;;;27.87;47.69
53719;BME280;39616;48.872;9.390;2022-07-23T11:55:07;98449.75;;;28.26;46.42
53719;BME280;39616;48.872;9.390;2022-07-23T11:57:40;98449.09;;;28.56;47.79
53719;BME280;39616;48.872;9.390;2022-07-23T12:00:16;98450.13;;;27.76;49.64
53719;BME280;39616;48.872;9.390;2022-07-23T12:02:52;98451.63;;;28.43;48.22
53719;BME280;39616;48.872;9.390;2022-07-23T12:05:26;98445.19;;;28.87;47.38
53719;BME280;39616;48.872;9.390;2022-07-23T12:07:58;98453.97;;;27.96;49.46
53719;BME280;39616;48.872;9.390;2022-07-23T12:10:33;98440.91;;;27.86;51.79
53719;BME280;39616;48.872;9.390;2022-07-23T12:13:11;98434.66;;;28.20;51.58
53719;BME280;39616;48.872;9.390;2022-07-23T12:15:44;98436.09;;;28.42;51.52
53719;BME280;39616;48.872;9.390;2022-07-23T12:18:18;98432.97;;;29.08;49.50
53719;BME280;39616;48.872;9.390;2022-07-23T12:20:51;98431.81;;;29.94;45.20
53719;BME280;39616;48.872;9.390;2022-07-23T12:23:26;98421.00;;;29.42;46.40
53719;BME280;39616;48.872;9.390;2022-07-23T12:26:01;98433.47;;;29.03;47.26
53719;BME280;39616;48.872;9.390;2022-07-23T12:28:32;98437.06;;;29.31;46.03
53719;BME280;39616;48.872;9.390;2022-07-23T12:31:03;98427.34;;;29.12;46.37
53719;BME280;39616;48.872;9.390;2022-07-23T12:33:37;98425.31;;;29.16;47.69
53719;BME280;39616;48.872;9.390;2022-07-23T12:36:09;98435.13;;;28.94;47.16
53719;BME280;39616;48.872;9.390;2022-07-23T12:38:48;98428.09;;;28.82;48.07
53719;BME280;39616;48.872;9.390;2022-07-23T12:41:19;98431.03;;;28.68;49.71
53719;BME280;39616;48.872;9.390;2022-07-23T12:43:49;98428.53;;;28.80;50.18
53719;BME280;39616;48.872;9.390;2022-07-23T12:46:21;98429.19;;;28.57;50.39
53719;BME280;39616;48.872;9.390;2022-07-23T12:48:53;98432.28;;;28.63;50.25
53719;BME280;39616;48.872;9.390;2022-07-23T12:51:28;98435.03;;;28.67;50.21
53719;BME280;39616;48.872;9.390;2022-07-23T12:54:06;98441.97;;;28.51;51.50
53719;BME280;39616;48.872;9.390;2022-07-23T12:56:39;98436.09;;;28.42;51.29
53719;BME280;39616;48.872;9.390;2022-07-23T12:59:13;98439.28;;;28.40;52.47
53719;BME280;39616;48.872;9.390;2022-07-23T13:01:55;98441.13;;;28.09;53.05
53719;BME280;39616;48.872;9.390;2022-07-23T13:04:26;98434.03;;;28.87;51.37
53719;BME280;39616;48.872;9.390;2022-07-23T13:07:00;98429.19;;;29.26;49.28
53719;BME280;39616;48.872;9.390;2022-07-23T13:09:34;98432.59;;;29.10;49.54
53719;BME280;39616;48.872;9.390;2022-07-23T13:12:04;98437.41;;;28.68;50.32
53719;BME280;39616;48.872;9.390;2022-07-23T13:14:34;98442.72;;;28.93;51.15
53719;BME280;39616;48.872;9.390;2022-07-23T13:17:05;98440.22;;;29.06;50.33
53719;BME280;39616;48.872;9.390;2022-07-23T13:19:36;98434.47;;;28.45;48.92
53719;BME280;39616;48.872;9.390;2022-07-23T13:22:06;98435.59;;;28.88;49.74
53719;BME280;39616;48.872;9.390;2022-07-23T13:24:36;98429.75;;;29.13;48.46
53719;BME280;39616;48.872;9.390;2022-07-23T13:27:07;98439.47;;;29.02;48.25
53719;BME280;39616;48.872;9.390;2022-07-23T13:29:38;98435.63;;;29.19;48.49
53719;BME280;39616;48.872;9.390;2022-07-23T13:32:08;98416.84;;;29.23;48.13
53719;BME280;39616;48.872;9.390;2022-07-23T13:34:39;98423.00;;;29.11;47.85
53719;BME280;39616;48.872;9.390;2022-07-23T13:37:09;98430.50;;;29.18;45.59
53719;BME280;39616;48.872;9.390;2022-07-23T13:39:40;98433.88;;;29.32;45.08
53719;BME280;39616;48.872;9.390;2022-07-23T13:42:10;98430.63;;;29.07;45.72
53719;BME280;39616;48.872;9.390;2022-07-23T13:44:40;98435.06;;;29.01;47.59
53719;BME280;39616;48.872;9.390;2022-07-23T13:47:11;98423.28;;;29.20;48.74
53719;BME280;39616;48.872;9.390;2022-07-23T13:49:41;98426.91;;;28.79;48.85
53719;BME280;39616;48.872;9.390;2022-07-23T13:52:11;98424.28;;;29.03;47.33
53719;BME280;39616;48.872;9.390;2022-07-23T13:54:42;98420.53;;;28.79;48.45
53719;BME280;39616;48.872;9.390;2022-07-23T13:57:12;98423.34;;;28.79;48.00